Time,TemperatureF,DewpointF,PressureIn,WindDirection,WindDirectionDegrees,WindSpeedMPH,WindSpeedGustMPH,Humidity,HourlyPrecipIn,Conditions,Clouds,dailyrainin,SoftwareType,DateUTC
2013-02-23 00:01:00,27.9,23.4,29.97,WSW,241,4.0,11.0,83,0.00,,---,0.00,VWS V14.01,2013-02-23 05:01:00,
2013-02-23 00:16:00,27.7,23.5,29.96,SW,236,4.0,11.0,84,0.00,,---,0.00,VWS V14.01,2013-02-23 05:16:00,
2013-02-23 00:31:00,27.6,23.4,29.97,SSW,210,7.0,12.0,84,0.00,,---,0.00,VWS V14.01,2013-02-23 05:31:00,
2013-02-23 00:46:00,27.5,23.3,29.96,West,259,9.0,13.0,84,0.00,,---,0.00,VWS V14.01,2013-02-23 05:46:00,
2013-02-23 01:01:00,27.4,23.5,29.97,WSW,242,6.0,11.0,85,0.00,,---,0.00,VWS V14.01,2013-02-23 06:01:00,
2013-02-23 01:16:00,27.1,23.2,29.96,SW,229,8.0,13.0,85,0.00,,---,0.00,VWS V14.01,2013-02-23 06:16:00,
2013-02-23 01:31:00,26.9,23.0,29.96,SW,224,5.0,14.0,85,0.00,,---,0.00,VWS V14.01,2013-02-23 06:31:00,
2013-02-23 01:46:00,26.8,23.2,29.96,WSW,248,6.0,15.0,86,0.00,,---,0.00,VWS V14.01,2013-02-23 06:46:00,
2013-02-23 02:01:00,26.6,23.0,29.96,WSW,245,5.0,11.0,86,0.00,,---,0.00,VWS V14.01,2013-02-23 07:01:00,
2013-02-23 02:16:00,26.4,22.8,29.96,WSW,242,7.0,12.0,86,0.00,,---,0.00,VWS V14.01,2013-02-23 07:16:00,
2013-02-23 02:31:00,26.4,22.8,29.95,SW,231,5.0,14.0,86,0.00,,---,0.00,VWS V14.01,2013-02-23 07:31:00,
2013-02-23 02:46:00,26.2,22.9,29.96,WSW,240,5.0,14.0,87,0.00,,---,0.00,VWS V14.01,2013-02-23 07:46:00,
2013-02-23 03:01:00,26.2,22.9,29.96,SW,230,5.0,14.0,87,0.00,,---,0.00,VWS V14.01,2013-02-23 08:01:00,
2013-02-23 03:16:00,26.2,22.9,29.96,SW,236,5.0,13.0,87,0.00,,---,0.00,VWS V14.01,2013-02-23 08:16:00,
2013-02-23 03:31:00,26.1,22.8,29.96,WSW,242,6.0,12.0,87,0.00,,---,0.00,VWS V14.01,2013-02-23 08:31:00,
2013-02-23 03:46:00,26.0,22.7,29.96,SSW,205,6.0,13.0,87,0.00,,---,0.00,VWS V14.01,2013-02-23 08:46:00,
2013-02-23 04:01:00,26.0,22.9,29.96,SW,228,4.0,10.0,88,0.00,,---,0.00,VWS V14.01,2013-02-23 09:01:00,
2013-02-23 04:16:00,25.9,22.8,29.96,WSW,254,6.0,13.0,88,0.00,,---,0.00,VWS V14.01,2013-02-23 09:16:00,
2013-02-23 04:31:00,25.9,22.8,29.96,WSW,243,5.0,13.0,88,0.00,,---,0.00,VWS V14.01,2013-02-23 09:31:00,
2013-02-23 04:46:00,25.8,22.5,29.96,SW,227,5.0,15.0,87,0.00,,---,0.00,VWS V14.01,2013-02-23 09:46:00,
2013-02-23 05:01:00,25.7,22.6,29.96,SW,226,3.0,12.0,88,0.00,,---,0.00,VWS V14.01,2013-02-23 10:01:00,
2013-02-23 05:16:00,25.6,22.3,29.96,WSW,251,6.0,11.0,87,0.00,,---,0.00,VWS V14.01,2013-02-23 10:16:00,
2013-02-23 05:31:00,25.5,22.5,29.96,SW,221,3.0,13.0,88,0.00,,---,0.00,VWS V14.01,2013-02-23 10:31:00,
2013-02-23 05:46:00,25.4,22.1,29.96,WSW,252,4.0,13.0,87,0.00,,---,0.00,VWS V14.01,2013-02-23 10:46:00,
2013-02-23 06:01:00,25.3,22.0,29.97,WSW,251,6.0,11.0,87,0.00,,---,0.00,VWS V14.01,2013-02-23 11:01:00,
2013-02-23 06:16:00,25.1,21.8,29.97,SW,235,5.0,13.0,87,0.00,,---,0.00,VWS V14.01,2013-02-23 11:16:00,
2013-02-23 06:31:00,25.0,22.0,29.97,SW,226,9.0,10.0,88,0.00,,---,0.00,VWS V14.01,2013-02-23 11:31:00,
2013-02-23 06:46:00,24.8,21.8,29.98,SW,235,9.0,11.0,88,0.00,,---,0.00,VWS V14.01,2013-02-23 11:46:00,
2013-02-23 07:01:00,24.8,21.8,29.98,WSW,240,5.0,11.0,88,0.00,,---,0.00,VWS V14.01,2013-02-23 12:01:00,
2013-02-23 07:16:00,24.6,21.6,29.98,SW,219,6.0,9.0,88,0.00,,---,0.00,VWS V14.01,2013-02-23 12:16:00,
2013-02-23 07:31:00,24.5,21.2,29.98,SW,226,3.0,10.0,87,0.00,,---,0.00,VWS V14.01,2013-02-23 12:31:00,
2013-02-23 07:46:00,24.3,21.0,29.99,SSW,211,5.0,9.0,87,0.00,,---,0.00,VWS V14.01,2013-02-23 12:46:00,
2013-02-23 08:01:00,24.1,21.1,29.99,SW,223,6.0,9.0,88,0.00,,---,0.00,VWS V14.01,2013-02-23 13:01:00,
2013-02-23 08:16:00,24.0,20.7,29.99,WSW,238,3.0,10.0,87,0.00,,---,0.00,VWS V14.01,2013-02-23 13:16:00,
2013-02-23 08:31:00,24.0,20.4,29.99,SW,227,2.0,10.0,86,0.00,,---,0.00,VWS V14.01,2013-02-23 13:31:00,
2013-02-23 08:46:00,24.0,20.1,29.98,SW,217,8.0,11.0,85,0.00,,---,0.00,VWS V14.01,2013-02-23 13:46:00,
2013-02-23 09:01:00,24.2,20.1,29.98,SSW,207,2.0,11.0,84,0.00,,---,0.00,VWS V14.01,2013-02-23 14:01:00,
2013-02-23 09:16:00,24.3,20.2,29.98,SSW,196,7.0,12.0,84,0.00,,---,0.00,VWS V14.01,2013-02-23 14:16:00,
2013-02-23 09:31:00,24.7,20.0,29.97,SSW,198,7.0,12.0,82,0.00,,---,0.00,VWS V14.01,2013-02-23 14:31:00,
2013-02-23 09:46:00,25.1,20.1,29.98,SW,236,4.0,11.0,81,0.00,,---,0.00,VWS V14.01,2013-02-23 14:46:00,
2013-02-23 10:01:00,25.2,19.9,29.98,SW,234,11.0,15.0,80,0.00,,---,0.00,VWS V14.01,2013-02-23 15:01:00,
2013-02-23 10:16:00,25.5,19.9,29.98,WSW,256,5.0,13.0,79,0.00,,---,0.00,VWS V14.01,2013-02-23 15:16:00,
2013-02-23 10:31:00,25.7,19.8,29.98,SSW,207,5.0,15.0,78,0.00,,---,0.00,VWS V14.01,2013-02-23 15:31:00,
2013-02-23 10:46:00,25.6,19.7,29.99,WSW,252,9.0,14.0,78,0.00,,---,0.00,VWS V14.01,2013-02-23 15:46:00,
2013-02-23 11:01:00,25.8,19.6,29.98,SW,221,7.0,13.0,77,0.00,,---,0.00,VWS V14.01,2013-02-23 16:01:00,
2013-02-23 11:16:00,26.0,19.8,29.98,SW,236,7.0,12.0,77,0.00,,---,0.00,VWS V14.01,2013-02-23 16:16:00,
2013-02-23 11:31:00,25.9,19.4,29.98,SW,234,10.0,14.0,76,0.00,,---,0.00,VWS V14.01,2013-02-23 16:31:00,
2013-02-23 11:46:00,26.2,19.7,29.98,West,264,3.0,12.0,76,0.00,,---,0.00,VWS V14.01,2013-02-23 16:46:00,
2013-02-23 12:01:00,26.2,19.4,29.99,WSW,239,5.0,12.0,75,0.00,,---,0.00,VWS V14.01,2013-02-23 17:01:00,
2013-02-23 12:16:00,26.4,19.6,29.99,WSW,249,8.0,14.0,75,0.00,,---,0.00,VWS V14.01,2013-02-23 17:16:00,
2013-02-23 12:31:00,26.9,20.0,29.99,WSW,237,6.0,14.0,75,0.01,,---,0.01,VWS V14.01,2013-02-23 17:31:00,
2013-02-23 12:46:00,27.0,19.2,29.98,SW,219,13.0,13.0,72,0.01,,---,0.01,VWS V14.01,2013-02-23 17:46:00,
2013-02-23 13:01:00,27.2,19.4,29.97,WSW,239,6.0,13.0,72,0.01,,---,0.01,VWS V14.01,2013-02-23 18:01:00,
2013-02-23 13:16:00,27.1,19.0,29.97,West,260,9.0,13.0,71,0.01,,---,0.01,VWS V14.01,2013-02-23 18:16:00,
2013-02-23 13:31:00,27.1,19.0,29.97,WSW,251,11.0,12.0,71,0.01,,---,0.01,VWS V14.01,2013-02-23 18:31:00,
2013-02-23 13:46:00,27.1,19.3,29.96,West,259,6.0,13.0,72,0.00,,---,0.01,VWS V14.01,2013-02-23 18:46:00,
2013-02-23 14:01:00,27.2,19.7,29.95,WSW,248,5.0,13.0,73,0.00,,---,0.01,VWS V14.01,2013-02-23 19:01:00,
2013-02-23 14:16:00,27.3,19.8,29.95,WSW,244,5.0,13.0,73,0.00,,---,0.01,VWS V14.01,2013-02-23 19:16:00,
2013-02-23 14:31:00,27.2,19.7,29.95,SW,216,8.0,13.0,73,0.00,,---,0.01,VWS V14.01,2013-02-23 19:31:00,
2013-02-23 14:46:00,27.1,20.2,29.95,WSW,238,5.0,13.0,75,0.00,,---,0.01,VWS V14.01,2013-02-23 19:46:00,
2013-02-23 15:01:00,27.1,19.9,29.95,WSW,238,8.0,13.0,74,0.00,,---,0.01,VWS V14.01,2013-02-23 20:01:00,
2013-02-23 15:16:00,27.2,19.7,29.95,SW,236,6.0,11.0,73,0.00,,---,0.01,VWS V14.01,2013-02-23 20:16:00,
2013-02-23 15:31:00,27.3,20.1,29.95,West,262,7.0,11.0,74,0.00,,---,0.01,VWS V14.01,2013-02-23 20:31:00,
2013-02-23 15:46:00,27.1,19.9,29.96,SW,232,4.0,12.0,74,0.00,,---,0.01,VWS V14.01,2013-02-23 20:46:00,
2013-02-23 16:01:00,27.4,20.2,29.96,West,260,5.0,12.0,74,0.00,,---,0.01,VWS V14.01,2013-02-23 21:01:00,
2013-02-23 16:16:00,27.0,19.5,29.96,WSW,245,5.0,11.0,73,0.00,,---,0.01,VWS V14.01,2013-02-23 21:16:00,
2013-02-23 16:31:00,26.8,20.0,29.97,WSW,243,5.0,11.0,75,0.00,,---,0.01,VWS V14.01,2013-02-23 21:31:00,
2013-02-23 16:46:00,26.5,19.7,29.96,SW,234,4.0,12.0,75,0.00,,---,0.01,VWS V14.01,2013-02-23 21:46:00,
2013-02-23 17:01:00,26.4,19.6,29.96,WSW,244,7.0,12.0,75,0.00,,---,0.01,VWS V14.01,2013-02-23 22:01:00,
2013-02-23 17:16:00,26.3,19.5,29.97,West,261,7.0,11.0,75,0.00,,---,0.01,VWS V14.01,2013-02-23 22:16:00,
2013-02-23 17:31:00,26.2,19.4,29.97,SW,228,6.0,8.0,75,0.00,,---,0.01,VWS V14.01,2013-02-23 22:31:00,
2013-02-23 17:46:00,26.1,19.6,29.98,WSW,252,3.0,8.0,76,0.00,,---,0.01,VWS V14.01,2013-02-23 22:46:00,
2013-02-23 18:01:00,25.9,19.4,29.98,WSW,255,6.0,8.0,76,0.00,,---,0.01,VWS V14.01,2013-02-23 23:01:00,
2013-02-23 18:16:00,25.5,20.2,29.98,WSW,246,5.0,9.0,80,0.00,,---,0.01,VWS V14.01,2013-02-23 23:16:00,
2013-02-23 18:31:00,25.4,20.1,29.98,WSW,257,4.0,9.0,80,0.00,,---,0.01,VWS V14.01,2013-02-23 23:31:00,
2013-02-23 18:46:00,25.4,20.1,29.98,SW,236,3.0,7.0,80,0.00,,---,0.01,VWS V14.01,2013-02-23 23:46:00,
2013-02-23 19:01:00,25.1,20.4,29.99,WSW,258,6.0,8.0,82,0.00,,---,0.01,VWS V14.01,2013-02-24 00:01:00,
2013-02-23 19:16:00,25.0,20.3,29.99,SW,219,5.0,9.0,82,0.00,,---,0.01,VWS V14.01,2013-02-24 00:16:00,
2013-02-23 19:31:00,24.8,20.1,30.00,SW,232,5.0,10.0,82,0.00,,---,0.01,VWS V14.01,2013-02-24 00:31:00,
2013-02-23 19:46:00,24.8,20.4,30.00,WSW,250,4.0,9.0,83,0.00,,---,0.01,VWS V14.01,2013-02-24 00:46:00,
2013-02-23 20:01:00,24.7,20.3,30.00,WSW,237,3.0,7.0,83,0.00,,---,0.01,VWS V14.01,2013-02-24 01:01:00,
2013-02-23 20:16:00,24.7,20.3,30.00,WSW,239,3.0,8.0,83,0.00,,---,0.01,VWS V14.01,2013-02-24 01:16:00,
2013-02-23 20:31:00,24.6,20.2,30.00,SW,225,4.0,6.0,83,0.00,,---,0.01,VWS V14.01,2013-02-24 01:31:00,
2013-02-23 20:46:00,24.6,20.2,30.01,SW,233,3.0,7.0,83,0.00,,---,0.01,VWS V14.01,2013-02-24 01:46:00,
2013-02-23 21:01:00,24.6,20.2,30.00,WSW,240,4.0,8.0,83,0.00,,---,0.01,VWS V14.01,2013-02-24 02:01:00,
2013-02-23 21:16:00,24.6,20.2,30.00,WSW,240,4.0,8.0,83,0.00,,---,0.01,VWS V14.01,2013-02-24 02:16:00,
2013-02-23 21:31:00,24.5,20.1,30.00,SW,232,3.0,7.0,83,0.00,,---,0.01,VWS V14.01,2013-02-24 02:31:00,
2013-02-23 21:46:00,24.6,20.2,30.00,WSW,252,3.0,5.0,83,0.00,,---,0.01,VWS V14.01,2013-02-24 02:46:00,
2013-02-23 22:01:00,24.7,20.0,30.00,WSW,243,4.0,8.0,82,0.00,,---,0.01,VWS V14.01,2013-02-24 03:01:00,
2013-02-23 22:16:00,24.7,19.7,30.00,West,265,5.0,8.0,81,0.00,,---,0.01,VWS V14.01,2013-02-24 03:16:00,
2013-02-23 22:31:00,24.8,19.8,30.00,WSW,252,5.0,9.0,81,0.00,,---,0.01,VWS V14.01,2013-02-24 03:31:00,
2013-02-23 22:46:00,24.7,19.7,30.00,WSW,257,4.0,7.0,81,0.00,,---,0.01,VWS V14.01,2013-02-24 03:46:00,
2013-02-23 23:01:00,24.7,19.7,29.99,WSW,258,5.0,8.0,81,0.00,,---,0.01,VWS V14.01,2013-02-24 04:01:00,
2013-02-23 23:16:00,24.6,19.9,29.99,West,273,4.0,8.0,82,0.00,,---,0.01,VWS V14.01,2013-02-24 04:16:00,
2013-02-23 23:31:00,24.7,19.4,29.99,WSW,249,6.0,12.0,80,0.00,,---,0.01,VWS V14.01,2013-02-24 04:31:00,
2013-02-23 23:46:00,24.8,19.5,29.99,West,259,7.0,10.0,80,0.00,,---,0.01,VWS V14.01,2013-02-24 04:46:00,